Bahawalpur Weather



Bahawalpur's Current Weather

Temprature 40.31o clear sky

clear sky

Rain: 0 %

Min Temprature40.31o
Max Temprature40.31o
Humidity30
Wind Speed5.29 m/h
Sun Rise05:40:30
Sun Set18:55:56
Current Time: 13-Aug-2020 19:22:24
Lat/Lon: 29.4, 71.68




Bahawalpur's Geo Location



Bahawalpur's Weather Forecast

Time Overall Temp Min Temp Max Temp Humidity Wind Speed Rain
13-Aug-2020 (Thu)
20:00:00 clear sky 41.310 39.710 41.310 29 5.8 m/h 0 %
23:00:00 few clouds 39.430 38.490 39.430 34 5.72 m/h 0 %
14-Aug-2020 (Fri)
02:00:00 few clouds 37.200 36.810 37.200 40 4.87 m/h 0 %
05:00:00 scattered clouds 34.620 34.550 34.620 52 5.51 m/h 0 %
08:00:00 broken clouds 35.070 35.070 35.070 51 4.83 m/h 0 %
11:00:00 broken clouds 38.140 38.140 38.140 40 4.04 m/h 0 %
14:00:00 few clouds 41.540 41.540 41.540 32 4.06 m/h 0 %
17:00:00 few clouds 41.800 41.800 41.800 29 2.72 m/h 0 %
20:00:00 few clouds 39.020 39.020 39.020 34 2.06 m/h 0 %
23:00:00 few clouds 37.690 37.690 37.690 36 3.77 m/h 0 %
15-Aug-2020 (Sat)
02:00:00 clear sky 36.160 36.160 36.160 39 3.92 m/h 0 %
05:00:00 clear sky 34.670 34.670 34.670 46 5.65 m/h 0 %
08:00:00 clear sky 36.100 36.100 36.100 49 7.22 m/h 0 %
11:00:00 clear sky 41.910 41.910 41.910 31 6.13 m/h 0 %
14:00:00 scattered clouds 44.050 44.050 44.050 26 5.34 m/h 0 %
17:00:00 broken clouds 42.770 42.770 42.770 27 4.68 m/h 0 %
20:00:00 scattered clouds 40.200 40.200 40.200 30 3.84 m/h 0 %
23:00:00 few clouds 38.710 38.710 38.710 34 4.16 m/h 0 %
16-Aug-2020 (Sun)
02:00:00 clear sky 36.990 36.990 36.990 39 4.64 m/h 0 %
05:00:00 clear sky 34.750 34.750 34.750 50 5.81 m/h 0 %
08:00:00 few clouds 35.890 35.890 35.890 46 7.44 m/h 0 %
11:00:00 scattered clouds 41.510 41.510 41.510 31 6.85 m/h 0 %
14:00:00 few clouds 44.290 44.290 44.290 24 5.66 m/h 0 %
17:00:00 scattered clouds 43.810 43.810 43.810 24 5.39 m/h 0 %
20:00:00 scattered clouds 40.420 40.420 40.420 30 4.88 m/h 0 %
23:00:00 scattered clouds 38.060 38.060 38.060 37 6.92 m/h 0 %
17-Aug-2020 (Mon)
02:00:00 scattered clouds 35.570 35.570 35.570 47 6.91 m/h 0 %
05:00:00 scattered clouds 33.840 33.840 33.840 53 6.75 m/h 0 %
08:00:00 broken clouds 34.520 34.520 34.520 50 7.7 m/h 0 %
11:00:00 overcast clouds 39.040 39.040 39.040 36 8.39 m/h 0 %
14:00:00 overcast clouds 42.330 42.330 42.330 28 6.7 m/h 0 %
17:00:00 overcast clouds 41.960 41.960 41.960 28 4.79 m/h 0 %
20:00:00 overcast clouds 37.690 37.690 37.690 38 7.3 m/h 0 %
23:00:00 broken clouds 34.380 34.380 34.380 48 7.8 m/h 0 %
18-Aug-2020 (Tue)
02:00:00 broken clouds 33.820 33.820 33.820 49 5.22 m/h 0 %
05:00:00 scattered clouds 33.350 33.350 33.350 51 4.82 m/h 0 %
08:00:00 light rain 35.140 35.140 35.140 48 5.93 m/h 18 %
11:00:00 scattered clouds 39.280 39.280 39.280 38 5.8 m/h 0 %
14:00:00 overcast clouds 41.380 41.380 41.380 32 4.92 m/h 0 %
17:00:00 broken clouds 41.750 41.750 41.750 30 4.54 m/h 0 %


Bahawalpur's Tourist Spots

Historical Places in Bahawalpur

Famous Cities (60)